sensor_id;sensor_type;location;lat;lon;timestamp;temperature;humidity
11221;DHT22;8517;53.546;10.104;2023-11-19T00:01:10;7.60;99.90
11221;DHT22;8517;53.546;10.104;2023-11-19T00:03:36;7.70;99.90
11221;DHT22;8517;53.546;10.104;2023-11-19T00:06:03;7.70;99.90
11221;DHT22;8517;53.546;10.104;2023-11-19T00:08:30;7.70;99.90
11221;DHT22;8517;53.546;10.104;2023-11-19T00:10:57;7.60;99.90
11221;DHT22;8517;53.546;10.104;2023-11-19T00:13:24;7.60;99.90
11221;DHT22;8517;53.546;10.104;2023-11-19T00:15:52;7.60;99.90
11221;DHT22;8517;53.546;10.104;2023-11-19T00:18:19;7.60;99.90
11221;DHT22;8517;53.546;10.104;2023-11-19T00:20:46;7.60;99.90
11221;DHT22;8517;53.546;10.104;2023-11-19T00:23:13;7.60;99.90
11221;DHT22;8517;53.546;10.104;2023-11-19T00:25:39;7.60;99.90
11221;DHT22;8517;53.546;10.104;2023-11-19T00:28:06;7.60;99.90
11221;DHT22;8517;53.546;10.104;2023-11-19T00:30:33;7.60;99.90
11221;DHT22;8517;53.546;10.104;2023-11-19T00:33:01;7.60;99.90
11221;DHT22;8517;53.546;10.104;2023-11-19T00:35:28;7.60;99.90
11221;DHT22;8517;53.546;10.104;2023-11-19T00:37:57;7.60;99.90
11221;DHT22;8517;53.546;10.104;2023-11-19T00:40:24;7.60;99.90
11221;DHT22;8517;53.546;10.104;2023-11-19T00:42:50;7.60;99.90
11221;DHT22;8517;53.546;10.104;2023-11-19T00:45:17;7.60;99.90
11221;DHT22;8517;53.546;10.104;2023-11-19T00:47:44;7.60;99.90
11221;DHT22;8517;53.546;10.104;2023-11-19T00:50:12;7.60;99.90
11221;DHT22;8517;53.546;10.104;2023-11-19T00:52:39;7.60;99.90
11221;DHT22;8517;53.546;10.104;2023-11-19T00:55:06;7.60;99.90
11221;DHT22;8517;53.546;10.104;2023-11-19T00:57:33;7.60;99.90
11221;DHT22;8517;53.546;10.104;2023-11-19T01:00:01;7.60;99.90
11221;DHT22;8517;53.546;10.104;2023-11-19T01:02:29;7.60;99.90
11221;DHT22;8517;53.546;10.104;2023-11-19T01:04:56;7.70;99.90
11221;DHT22;8517;53.546;10.104;2023-11-19T01:07:24;7.70;99.90
11221;DHT22;8517;53.546;10.104;2023-11-19T01:09:52;7.70;99.90
11221;DHT22;8517;53.546;10.104;2023-11-19T01:12:19;7.70;99.90
11221;DHT22;8517;53.546;10.104;2023-11-19T01:14:46;7.70;99.90
11221;DHT22;8517;53.546;10.104;2023-11-19T01:17:13;7.70;99.90
11221;DHT22;8517;53.546;10.104;2023-11-19T01:19:39;7.70;99.90
11221;DHT22;8517;53.546;10.104;2023-11-19T01:22:06;7.70;99.90
11221;DHT22;8517;53.546;10.104;2023-11-19T01:24:34;7.70;99.90
11221;DHT22;8517;53.546;10.104;2023-11-19T01:27:01;7.70;99.90
11221;DHT22;8517;53.546;10.104;2023-11-19T01:29:28;7.70;99.90
11221;DHT22;8517;53.546;10.104;2023-11-19T01:31:54;7.70;99.90
11221;DHT22;8517;53.546;10.104;2023-11-19T01:34:21;7.70;99.90
11221;DHT22;8517;53.546;10.104;2023-11-19T01:36:48;7.70;99.90
11221;DHT22;8517;53.546;10.104;2023-11-19T01:39:15;7.70;99.90
11221;DHT22;8517;53.546;10.104;2023-11-19T01:41:44;7.70;99.90
11221;DHT22;8517;53.546;10.104;2023-11-19T01:44:11;7.70;99.90
11221;DHT22;8517;53.546;10.104;2023-11-19T01:46:40;7.70;99.90
11221;DHT22;8517;53.546;10.104;2023-11-19T01:49:08;7.80;99.90
11221;DHT22;8517;53.546;10.104;2023-11-19T01:51:37;7.80;99.90
11221;DHT22;8517;53.546;10.104;2023-11-19T01:54:05;7.80;99.90
11221;DHT22;8517;53.546;10.104;2023-11-19T01:56:32;7.80;99.90
11221;DHT22;8517;53.546;10.104;2023-11-19T01:59:00;7.80;99.90
11221;DHT22;8517;53.546;10.104;2023-11-19T02:01:27;7.80;99.90
11221;DHT22;8517;53.546;10.104;2023-11-19T02:03:55;7.80;99.90
11221;DHT22;8517;53.546;10.104;2023-11-19T02:06:24;7.80;99.90
11221;DHT22;8517;53.546;10.104;2023-11-19T02:08:52;7.70;99.90
11221;DHT22;8517;53.546;10.104;2023-11-19T02:11:19;7.80;99.90
11221;DHT22;8517;53.546;10.104;2023-11-19T02:13:46;7.80;99.90
11221;DHT22;8517;53.546;10.104;2023-11-19T02:16:14;7.80;99.90
11221;DHT22;8517;53.546;10.104;2023-11-19T02:18:40;7.80;99.90
11221;DHT22;8517;53.546;10.104;2023-11-19T02:21:08;7.80;99.90
11221;DHT22;8517;53.546;10.104;2023-11-19T02:23:36;7.80;99.90
11221;DHT22;8517;53.546;10.104;2023-11-19T02:26:10;7.80;99.90
11221;DHT22;8517;53.546;10.104;2023-11-19T02:28:41;7.80;99.90
11221;DHT22;8517;53.546;10.104;2023-11-19T02:31:09;7.80;99.90
11221;DHT22;8517;53.546;10.104;2023-11-19T02:33:36;7.80;99.90
11221;DHT22;8517;53.546;10.104;2023-11-19T02:36:03;7.80;99.90
11221;DHT22;8517;53.546;10.104;2023-11-19T02:38:30;7.80;99.90
11221;DHT22;8517;53.546;10.104;2023-11-19T02:40:57;7.80;99.90
11221;DHT22;8517;53.546;10.104;2023-11-19T02:43:24;7.80;99.90
11221;DHT22;8517;53.546;10.104;2023-11-19T02:45:52;7.80;99.90
11221;DHT22;8517;53.546;10.104;2023-11-19T02:48:21;7.80;99.90
11221;DHT22;8517;53.546;10.104;2023-11-19T02:50:47;7.80;99.90
11221;DHT22;8517;53.546;10.104;2023-11-19T02:53:14;7.90;99.90
11221;DHT22;8517;53.546;10.104;2023-11-19T02:55:42;7.90;99.90
11221;DHT22;8517;53.546;10.104;2023-11-19T02:58:14;7.90;99.90
11221;DHT22;8517;53.546;10.104;2023-11-19T03:00:49;7.90;99.90
11221;DHT22;8517;53.546;10.104;2023-11-19T03:03:23;7.90;99.90
11221;DHT22;8517;53.546;10.104;2023-11-19T03:05:54;7.90;99.90
11221;DHT22;8517;53.546;10.104;2023-11-19T03:08:21;7.90;99.90
11221;DHT22;8517;53.546;10.104;2023-11-19T03:10:47;7.90;99.90
11221;DHT22;8517;53.546;10.104;2023-11-19T03:13:14;7.90;99.90
11221;DHT22;8517;53.546;10.104;2023-11-19T03:15:42;7.90;99.90
11221;DHT22;8517;53.546;10.104;2023-11-19T03:18:09;7.90;99.90
11221;DHT22;8517;53.546;10.104;2023-11-19T03:20:37;7.90;99.90
11221;DHT22;8517;53.546;10.104;2023-11-19T03:23:04;8.00;99.90
11221;DHT22;8517;53.546;10.104;2023-11-19T03:25:31;8.00;99.90
11221;DHT22;8517;53.546;10.104;2023-11-19T03:28:00;8.00;99.90
11221;DHT22;8517;53.546;10.104;2023-11-19T03:30:27;8.10;99.90
11221;DHT22;8517;53.546;10.104;2023-11-19T03:32:54;8.10;99.90
11221;DHT22;8517;53.546;10.104;2023-11-19T03:35:21;8.10;99.90
11221;DHT22;8517;53.546;10.104;2023-11-19T03:37:50;8.10;99.90
11221;DHT22;8517;53.546;10.104;2023-11-19T03:40:17;8.10;99.90
11221;DHT22;8517;53.546;10.104;2023-11-19T03:42:44;8.20;99.90
11221;DHT22;8517;53.546;10.104;2023-11-19T03:45:11;8.20;99.90
11221;DHT22;8517;53.546;10.104;2023-11-19T03:47:38;8.20;99.90
11221;DHT22;8517;53.546;10.104;2023-11-19T03:50:06;8.20;99.90
11221;DHT22;8517;53.546;10.104;2023-11-19T03:52:34;8.20;99.90
11221;DHT22;8517;53.546;10.104;2023-11-19T03:55:02;8.20;99.90
11221;DHT22;8517;53.546;10.104;2023-11-19T03:57:30;8.30;99.90
11221;DHT22;8517;53.546;10.104;2023-11-19T03:59:57;8.30;99.90
11221;DHT22;8517;53.546;10.104;2023-11-19T04:02:24;8.30;99.90
11221;DHT22;8517;53.546;10.104;2023-11-19T04:04:53;8.30;99.90
11221;DHT22;8517;53.546;10.104;2023-11-19T04:07:20;8.30;99.90
11221;DHT22;8517;53.546;10.104;2023-11-19T04:09:47;8.40;99.90
11221;DHT22;8517;53.546;10.104;2023-11-19T04:12:15;8.40;99.90
11221;DHT22;8517;53.546;10.104;2023-11-19T04:14:42;8.40;99.90
11221;DHT22;8517;53.546;10.104;2023-11-19T04:17:09;8.40;99.90
11221;DHT22;8517;53.546;10.104;2023-11-19T04:19:36;8.40;99.90
11221;DHT22;8517;53.546;10.104;2023-11-19T04:22:03;8.50;99.90
11221;DHT22;8517;53.546;10.104;2023-11-19T04:24:30;8.50;99.90
11221;DHT22;8517;53.546;10.104;2023-11-19T04:26:57;8.50;99.90
11221;DHT22;8517;53.546;10.104;2023-11-19T04:29:25;8.50;99.90
11221;DHT22;8517;53.546;10.104;2023-11-19T04:31:52;8.50;99.90
11221;DHT22;8517;53.546;10.104;2023-11-19T04:34:19;8.50;99.90
11221;DHT22;8517;53.546;10.104;2023-11-19T04:36:45;8.50;99.90
11221;DHT22;8517;53.546;10.104;2023-11-19T04:39:12;8.60;99.90
11221;DHT22;8517;53.546;10.104;2023-11-19T04:41:50;8.60;99.90
11221;DHT22;8517;53.546;10.104;2023-11-19T04:44:17;8.60;99.90
11221;DHT22;8517;53.546;10.104;2023-11-19T04:46:46;8.60;99.90
11221;DHT22;8517;53.546;10.104;2023-11-19T04:49:13;8.60;99.90
11221;DHT22;8517;53.546;10.104;2023-11-19T04:51:40;8.60;99.90
11221;DHT22;8517;53.546;10.104;2023-11-19T04:54:08;8.60;99.90
11221;DHT22;8517;53.546;10.104;2023-11-19T04:56:35;8.60;99.90
11221;DHT22;8517;53.546;10.104;2023-11-19T04:59:02;8.70;99.90
11221;DHT22;8517;53.546;10.104;2023-11-19T05:01:29;8.70;99.90
11221;DHT22;8517;53.546;10.104;2023-11-19T05:03:57;8.70;99.90
11221;DHT22;8517;53.546;10.104;2023-11-19T05:06:26;8.80;99.90
11221;DHT22;8517;53.546;10.104;2023-11-19T05:08:54;8.80;99.90
11221;DHT22;8517;53.546;10.104;2023-11-19T05:11:21;8.80;99.90
11221;DHT22;8517;53.546;10.104;2023-11-19T05:13:48;8.90;99.90
11221;DHT22;8517;53.546;10.104;2023-11-19T05:16:15;8.90;99.90
11221;DHT22;8517;53.546;10.104;2023-11-19T05:18:43;9.00;99.90
11221;DHT22;8517;53.546;10.104;2023-11-19T05:21:11;9.00;99.90
11221;DHT22;8517;53.546;10.104;2023-11-19T05:23:39;9.00;99.90
11221;DHT22;8517;53.546;10.104;2023-11-19T05:26:07;9.10;99.90
11221;DHT22;8517;53.546;10.104;2023-11-19T05:28:34;9.20;99.90
11221;DHT22;8517;53.546;10.104;2023-11-19T05:31:01;9.20;99.90
11221;DHT22;8517;53.546;10.104;2023-11-19T05:33:27;9.30;99.90
11221;DHT22;8517;53.546;10.104;2023-11-19T05:35:54;9.30;99.90
11221;DHT22;8517;53.546;10.104;2023-11-19T05:38:23;9.40;99.90
11221;DHT22;8517;53.546;10.104;2023-11-19T05:40:50;9.40;99.90
11221;DHT22;8517;53.546;10.104;2023-11-19T05:43:17;9.50;99.90
11221;DHT22;8517;53.546;10.104;2023-11-19T05:45:44;9.60;99.90
11221;DHT22;8517;53.546;10.104;2023-11-19T05:48:10;9.60;99.90
11221;DHT22;8517;53.546;10.104;2023-11-19T05:50:38;9.70;99.90
11221;DHT22;8517;53.546;10.104;2023-11-19T05:53:05;9.70;99.90
11221;DHT22;8517;53.546;10.104;2023-11-19T05:55:36;9.70;99.90
11221;DHT22;8517;53.546;10.104;2023-11-19T05:58:10;9.70;99.90
11221;DHT22;8517;53.546;10.104;2023-11-19T06:00:38;9.80;99.90
11221;DHT22;8517;53.546;10.104;2023-11-19T06:03:04;9.80;99.90
11221;DHT22;8517;53.546;10.104;2023-11-19T06:05:31;9.90;99.90
11221;DHT22;8517;53.546;10.104;2023-11-19T06:07:58;9.90;99.90
11221;DHT22;8517;53.546;10.104;2023-11-19T06:10:31;10.00;99.90
11221;DHT22;8517;53.546;10.104;2023-11-19T06:13:06;10.00;99.90
11221;DHT22;8517;53.546;10.104;2023-11-19T06:15:35;10.10;99.90
11221;DHT22;8517;53.546;10.104;2023-11-19T06:18:02;10.20;99.90
11221;DHT22;8517;53.546;10.104;2023-11-19T06:20:29;10.20;99.90
11221;DHT22;8517;53.546;10.104;2023-11-19T06:22:57;10.30;99.90
11221;DHT22;8517;53.546;10.104;2023-11-19T06:25:24;10.40;99.90
11221;DHT22;8517;53.546;10.104;2023-11-19T06:27:50;10.50;99.90
11221;DHT22;8517;53.546;10.104;2023-11-19T06:30:19;10.50;99.90
11221;DHT22;8517;53.546;10.104;2023-11-19T06:32:51;10.70;99.90
11221;DHT22;8517;53.546;10.104;2023-11-19T06:35:18;10.70;99.90
11221;DHT22;8517;53.546;10.104;2023-11-19T06:37:45;10.90;99.90
11221;DHT22;8517;53.546;10.104;2023-11-19T06:40:12;11.10;99.90
11221;DHT22;8517;53.546;10.104;2023-11-19T06:42:41;11.20;99.90
11221;DHT22;8517;53.546;10.104;2023-11-19T06:45:08;11.40;99.90
11221;DHT22;8517;53.546;10.104;2023-11-19T06:47:36;11.50;99.90
11221;DHT22;8517;53.546;10.104;2023-11-19T06:50:03;11.70;99.90
11221;DHT22;8517;53.546;10.104;2023-11-19T06:52:31;11.80;99.90
11221;DHT22;8517;53.546;10.104;2023-11-19T06:54:58;11.90;99.90
11221;DHT22;8517;53.546;10.104;2023-11-19T06:57:24;12.10;99.90
11221;DHT22;8517;53.546;10.104;2023-11-19T06:59:51;12.20;99.90
11221;DHT22;8517;53.546;10.104;2023-11-19T07:02:18;12.30;99.90
11221;DHT22;8517;53.546;10.104;2023-11-19T07:04:46;12.40;99.90
11221;DHT22;8517;53.546;10.104;2023-11-19T07:07:13;12.50;99.90
11221;DHT22;8517;53.546;10.104;2023-11-19T07:09:41;12.60;99.90
11221;DHT22;8517;53.546;10.104;2023-11-19T07:12:08;12.70;99.90
11221;DHT22;8517;53.546;10.104;2023-11-19T07:14:35;12.70;99.90
11221;DHT22;8517;53.546;10.104;2023-11-19T07:17:02;12.80;99.90
11221;DHT22;8517;53.546;10.104;2023-11-19T07:19:28;12.80;99.90
11221;DHT22;8517;53.546;10.104;2023-11-19T07:21:56;12.90;99.90
11221;DHT22;8517;53.546;10.104;2023-11-19T07:24:23;12.90;99.90
11221;DHT22;8517;53.546;10.104;2023-11-19T07:26:50;13.00;99.90
11221;DHT22;8517;53.546;10.104;2023-11-19T07:29:17;13.00;99.90
11221;DHT22;8517;53.546;10.104;2023-11-19T07:31:44;13.00;99.90
11221;DHT22;8517;53.546;10.104;2023-11-19T07:34:11;13.10;99.90
11221;DHT22;8517;53.546;10.104;2023-11-19T07:36:39;13.10;99.90
11221;DHT22;8517;53.546;10.104;2023-11-19T07:39:07;13.20;99.90
11221;DHT22;8517;53.546;10.104;2023-11-19T07:41:34;13.20;99.90
11221;DHT22;8517;53.546;10.104;2023-11-19T07:44:01;13.30;99.90
11221;DHT22;8517;53.546;10.104;2023-11-19T07:46:27;13.20;99.90
11221;DHT22;8517;53.546;10.104;2023-11-19T07:48:54;13.30;99.90
11221;DHT22;8517;53.546;10.104;2023-11-19T07:51:21;13.30;99.90
11221;DHT22;8517;53.546;10.104;2023-11-19T07:53:48;13.20;99.90
11221;DHT22;8517;53.546;10.104;2023-11-19T07:56:16;13.30;99.90
11221;DHT22;8517;53.546;10.104;2023-11-19T07:58:43;13.30;99.90
11221;DHT22;8517;53.546;10.104;2023-11-19T08:01:09;13.30;99.90
11221;DHT22;8517;53.546;10.104;2023-11-19T08:03:36;13.30;99.90
11221;DHT22;8517;53.546;10.104;2023-11-19T08:06:06;13.40;99.90
11221;DHT22;8517;53.546;10.104;2023-11-19T08:08:33;13.40;99.90
11221;DHT22;8517;53.546;10.104;2023-11-19T08:11:00;13.50;99.90
11221;DHT22;8517;53.546;10.104;2023-11-19T08:13:33;13.50;99.90
11221;DHT22;8517;53.546;10.104;2023-11-19T08:15:59;13.50;99.90
11221;DHT22;8517;53.546;10.104;2023-11-19T08:18:26;13.50;99.90
11221;DHT22;8517;53.546;10.104;2023-11-19T08:20:53;13.50;99.90
11221;DHT22;8517;53.546;10.104;2023-11-19T08:23:22;13.50;99.90
11221;DHT22;8517;53.546;10.104;2023-11-19T08:25:56;13.60;99.90
11221;DHT22;8517;53.546;10.104;2023-11-19T08:28:23;13.60;99.90
11221;DHT22;8517;53.546;10.104;2023-11-19T08:30:51;13.60;99.90
11221;DHT22;8517;53.546;10.104;2023-11-19T08:33:18;13.60;99.90
11221;DHT22;8517;53.546;10.104;2023-11-19T08:35:48;13.60;99.90
11221;DHT22;8517;53.546;10.104;2023-11-19T08:38:14;13.60;99.90
11221;DHT22;8517;53.546;10.104;2023-11-19T08:40:41;13.60;99.90
11221;DHT22;8517;53.546;10.104;2023-11-19T08:43:08;13.60;99.90
11221;DHT22;8517;53.546;10.104;2023-11-19T08:45:35;13.60;99.90
11221;DHT22;8517;53.546;10.104;2023-11-19T08:48:03;13.70;99.90
11221;DHT22;8517;53.546;10.104;2023-11-19T08:50:31;13.70;99.90
11221;DHT22;8517;53.546;10.104;2023-11-19T08:53:02;13.70;99.90
11221;DHT22;8517;53.546;10.104;2023-11-19T08:55:32;13.70;99.90
11221;DHT22;8517;53.546;10.104;2023-11-19T08:57:59;13.80;99.90
11221;DHT22;8517;53.546;10.104;2023-11-19T09:00:27;13.70;99.90
11221;DHT22;8517;53.546;10.104;2023-11-19T09:02:55;13.70;99.90
11221;DHT22;8517;53.546;10.104;2023-11-19T09:05:26;13.80;99.90
11221;DHT22;8517;53.546;10.104;2023-11-19T09:07:53;13.80;99.90
11221;DHT22;8517;53.546;10.104;2023-11-19T09:10:20;13.80;99.90
11221;DHT22;8517;53.546;10.104;2023-11-19T09:12:47;13.80;99.90
11221;DHT22;8517;53.546;10.104;2023-11-19T09:15:13;13.80;99.90
11221;DHT22;8517;53.546;10.104;2023-11-19T09:17:40;13.80;99.90
11221;DHT22;8517;53.546;10.104;2023-11-19T09:20:08;13.90;99.90
11221;DHT22;8517;53.546;10.104;2023-11-19T09:22:39;13.90;99.90
11221;DHT22;8517;53.546;10.104;2023-11-19T09:25:07;13.90;99.90
11221;DHT22;8517;53.546;10.104;2023-11-19T09:27:34;13.90;99.90
11221;DHT22;8517;53.546;10.104;2023-11-19T09:30:01;14.00;99.90
11221;DHT22;8517;53.546;10.104;2023-11-19T09:32:29;14.00;99.90
11221;DHT22;8517;53.546;10.104;2023-11-19T09:34:56;14.00;99.90
11221;DHT22;8517;53.546;10.104;2023-11-19T09:37:22;14.10;99.90
11221;DHT22;8517;53.546;10.104;2023-11-19T09:39:51;14.10;99.90
11221;DHT22;8517;53.546;10.104;2023-11-19T09:42:19;14.10;99.90
11221;DHT22;8517;53.546;10.104;2023-11-19T09:44:47;14.10;99.90
11221;DHT22;8517;53.546;10.104;2023-11-19T09:47:14;14.20;99.90
11221;DHT22;8517;53.546;10.104;2023-11-19T09:49:44;14.10;99.90
11221;DHT22;8517;53.546;10.104;2023-11-19T09:52:10;14.20;99.90
11221;DHT22;8517;53.546;10.104;2023-11-19T09:54:37;14.30;99.90
11221;DHT22;8517;53.546;10.104;2023-11-19T09:57:07;14.30;99.90
11221;DHT22;8517;53.546;10.104;2023-11-19T09:59:37;14.30;99.90
11221;DHT22;8517;53.546;10.104;2023-11-19T10:02:04;14.40;99.90
11221;DHT22;8517;53.546;10.104;2023-11-19T10:04:34;14.40;99.90
11221;DHT22;8517;53.546;10.104;2023-11-19T10:07:02;14.40;99.90
11221;DHT22;8517;53.546;10.104;2023-11-19T10:09:35;14.30;99.90
11221;DHT22;8517;53.546;10.104;2023-11-19T10:12:03;14.30;99.90
11221;DHT22;8517;53.546;10.104;2023-11-19T10:14:32;14.30;99.90
11221;DHT22;8517;53.546;10.104;2023-11-19T10:17:02;14.30;99.90
11221;DHT22;8517;53.546;10.104;2023-11-19T10:19:29;14.20;99.90
11221;DHT22;8517;53.546;10.104;2023-11-19T10:22:02;14.20;99.90
11221;DHT22;8517;53.546;10.104;2023-11-19T10:24:59;14.20;99.90
11221;DHT22;8517;53.546;10.104;2023-11-19T10:27:51;14.20;99.90
11221;DHT22;8517;53.546;10.104;2023-11-19T10:30:21;14.30;99.90
11221;DHT22;8517;53.546;10.104;2023-11-19T10:33:05;14.30;99.90
11221;DHT22;8517;53.546;10.104;2023-11-19T10:35:33;14.20;99.90
11221;DHT22;8517;53.546;10.104;2023-11-19T10:38:00;14.20;99.90
11221;DHT22;8517;53.546;10.104;2023-11-19T10:40:40;14.30;99.90
11221;DHT22;8517;53.546;10.104;2023-11-19T10:43:08;14.20;99.90
11221;DHT22;8517;53.546;10.104;2023-11-19T10:45:36;14.20;99.90
11221;DHT22;8517;53.546;10.104;2023-11-19T10:48:04;14.20;99.90
11221;DHT22;8517;53.546;10.104;2023-11-19T10:50:33;14.20;99.90
11221;DHT22;8517;53.546;10.104;2023-11-19T10:53:00;14.20;99.90
11221;DHT22;8517;53.546;10.104;2023-11-19T10:55:28;14.20;99.90
11221;DHT22;8517;53.546;10.104;2023-11-19T10:57:59;14.20;99.90
11221;DHT22;8517;53.546;10.104;2023-11-19T11:00:29;14.10;99.90
11221;DHT22;8517;53.546;10.104;2023-11-19T11:03:01;14.10;99.90
11221;DHT22;8517;53.546;10.104;2023-11-19T11:05:30;14.10;99.90
11221;DHT22;8517;53.546;10.104;2023-11-19T11:08:19;14.10;99.90
11221;DHT22;8517;53.546;10.104;2023-11-19T11:11:15;14.10;99.90
11221;DHT22;8517;53.546;10.104;2023-11-19T11:13:47;14.20;99.90
11221;DHT22;8517;53.546;10.104;2023-11-19T11:16:18;14.20;99.90
11221;DHT22;8517;53.546;10.104;2023-11-19T11:18:47;14.20;99.90
11221;DHT22;8517;53.546;10.104;2023-11-19T11:21:17;14.20;99.90
11221;DHT22;8517;53.546;10.104;2023-11-19T11:26:57;14.20;99.90
11221;DHT22;8517;53.546;10.104;2023-11-19T11:29:39;14.20;99.90
11221;DHT22;8517;53.546;10.104;2023-11-19T11:32:20;14.20;99.90
11221;DHT22;8517;53.546;10.104;2023-11-19T11:34:57;14.20;99.90
11221;DHT22;8517;53.546;10.104;2023-11-19T11:37:30;14.20;99.90
11221;DHT22;8517;53.546;10.104;2023-11-19T11:39:58;14.20;99.90
11221;DHT22;8517;53.546;10.104;2023-11-19T11:42:35;14.20;99.90
11221;DHT22;8517;53.546;10.104;2023-11-19T11:45:04;14.20;99.90
11221;DHT22;8517;53.546;10.104;2023-11-19T11:50:56;14.30;99.90
11221;DHT22;8517;53.546;10.104;2023-11-19T11:53:24;14.30;99.90
11221;DHT22;8517;53.546;10.104;2023-11-19T11:55:54;14.30;99.90
11221;DHT22;8517;53.546;10.104;2023-11-19T11:58:25;14.30;99.90
11221;DHT22;8517;53.546;10.104;2023-11-19T12:00:54;14.40;99.90
11221;DHT22;8517;53.546;10.104;2023-11-19T12:03:21;14.40;99.90
11221;DHT22;8517;53.546;10.104;2023-11-19T12:05:48;14.50;99.90
11221;DHT22;8517;53.546;10.104;2023-11-19T12:08:20;14.50;99.90
11221;DHT22;8517;53.546;10.104;2023-11-19T12:10:52;14.50;99.90
11221;DHT22;8517;53.546;10.104;2023-11-19T12:13:20;14.60;99.90
11221;DHT22;8517;53.546;10.104;2023-11-19T12:16:09;14.60;99.90
11221;DHT22;8517;53.546;10.104;2023-11-19T12:18:39;14.70;99.90
11221;DHT22;8517;53.546;10.104;2023-11-19T12:21:06;14.70;99.90
11221;DHT22;8517;53.546;10.104;2023-11-19T12:23:44;14.80;99.90
11221;DHT22;8517;53.546;10.104;2023-11-19T12:26:30;14.80;99.90
11221;DHT22;8517;53.546;10.104;2023-11-19T12:28:59;14.90;99.90
11221;DHT22;8517;53.546;10.104;2023-11-19T12:31:26;14.90;99.90
11221;DHT22;8517;53.546;10.104;2023-11-19T12:33:53;14.90;99.90
11221;DHT22;8517;53.546;10.104;2023-11-19T12:36:20;14.90;99.90
11221;DHT22;8517;53.546;10.104;2023-11-19T12:38:49;14.80;99.90
11221;DHT22;8517;53.546;10.104;2023-11-19T12:41:16;14.80;99.90
11221;DHT22;8517;53.546;10.104;2023-11-19T12:43:45;14.80;99.90
11221;DHT22;8517;53.546;10.104;2023-11-19T12:46:21;14.80;99.90
11221;DHT22;8517;53.546;10.104;2023-11-19T12:48:57;14.70;99.90
11221;DHT22;8517;53.546;10.104;2023-11-19T12:51:30;14.70;99.90
11221;DHT22;8517;53.546;10.104;2023-11-19T12:53:59;14.60;99.90
11221;DHT22;8517;53.546;10.104;2023-11-19T12:56:26;14.60;99.90
11221;DHT22;8517;53.546;10.104;2023-11-19T12:58:52;14.60;99.90
11221;DHT22;8517;53.546;10.104;2023-11-19T13:01:20;14.60;99.90
11221;DHT22;8517;53.546;10.104;2023-11-19T13:03:48;14.60;99.90
11221;DHT22;8517;53.546;10.104;2023-11-19T13:06:16;14.60;99.90
11221;DHT22;8517;53.546;10.104;2023-11-19T13:08:47;14.60;99.90
11221;DHT22;8517;53.546;10.104;2023-11-19T13:11:32;14.60;99.90
11221;DHT22;8517;53.546;10.104;2023-11-19T13:14:00;14.70;99.90
11221;DHT22;8517;53.546;10.104;2023-11-19T13:16:29;14.70;99.90
11221;DHT22;8517;53.546;10.104;2023-11-19T13:18:57;14.80;99.90
11221;DHT22;8517;53.546;10.104;2023-11-19T13:21:25;14.80;99.90
11221;DHT22;8517;53.546;10.104;2023-11-19T13:23:52;14.80;99.90
11221;DHT22;8517;53.546;10.104;2023-11-19T13:26:20;14.90;99.90
11221;DHT22;8517;53.546;10.104;2023-11-19T13:28:48;14.90;99.90
11221;DHT22;8517;53.546;10.104;2023-11-19T13:31:15;14.90;99.90
11221;DHT22;8517;53.546;10.104;2023-11-19T13:33:42;14.90;99.90
11221;DHT22;8517;53.546;10.104;2023-11-19T13:36:09;14.90;99.90
11221;DHT22;8517;53.546;10.104;2023-11-19T13:38:36;15.00;99.90
11221;DHT22;8517;53.546;10.104;2023-11-19T13:41:04;14.90;99.90
11221;DHT22;8517;53.546;10.104;2023-11-19T13:43:31;14.90;99.90
11221;DHT22;8517;53.546;10.104;2023-11-19T13:45:59;14.90;99.90
11221;DHT22;8517;53.546;10.104;2023-11-19T13:48:26;14.90;99.90
11221;DHT22;8517;53.546;10.104;2023-11-19T13:50:54;14.90;99.90
11221;DHT22;8517;53.546;10.104;2023-11-19T13:53:21;14.90;99.90
11221;DHT22;8517;53.546;10.104;2023-11-19T13:55:49;14.90;99.90
11221;DHT22;8517;53.546;10.104;2023-11-19T13:58:16;14.90;99.90
11221;DHT22;8517;53.546;10.104;2023-11-19T14:00:44;14.90;99.90
11221;DHT22;8517;53.546;10.104;2023-11-19T14:03:17;14.90;99.90
11221;DHT22;8517;53.546;10.104;2023-11-19T14:05:44;14.80;99.90
11221;DHT22;8517;53.546;10.104;2023-11-19T14:08:29;14.80;99.90
11221;DHT22;8517;53.546;10.104;2023-11-19T14:11:01;14.80;99.90
11221;DHT22;8517;53.546;10.104;2023-11-19T14:13:57;14.80;99.90
11221;DHT22;8517;53.546;10.104;2023-11-19T14:19:30;14.80;99.90
11221;DHT22;8517;53.546;10.104;2023-11-19T14:21:57;14.80;99.90
11221;DHT22;8517;53.546;10.104;2023-11-19T14:24:25;14.80;99.90
11221;DHT22;8517;53.546;10.104;2023-11-19T14:26:52;14.80;99.90
11221;DHT22;8517;53.546;10.104;2023-11-19T14:29:19;14.80;99.90
11221;DHT22;8517;53.546;10.104;2023-11-19T14:31:46;14.80;99.90
11221;DHT22;8517;53.546;10.104;2023-11-19T14:34:13;14.80;99.90
11221;DHT22;8517;53.546;10.104;2023-11-19T14:36:44;14.70;99.90
11221;DHT22;8517;53.546;10.104;2023-11-19T14:39:21;14.70;99.90
11221;DHT22;8517;53.546;10.104;2023-11-19T14:41:51;14.70;99.90
11221;DHT22;8517;53.546;10.104;2023-11-19T14:44:19;14.60;99.90
11221;DHT22;8517;53.546;10.104;2023-11-19T14:46:49;14.50;99.90
11221;DHT22;8517;53.546;10.104;2023-11-19T14:49:16;14.40;99.90
11221;DHT22;8517;53.546;10.104;2023-11-19T14:51:47;14.30;99.90
11221;DHT22;8517;53.546;10.104;2023-11-19T14:54:14;14.20;99.90
11221;DHT22;8517;53.546;10.104;2023-11-19T14:56:41;14.10;99.90
11221;DHT22;8517;53.546;10.104;2023-11-19T14:59:22;14.00;99.90
11221;DHT22;8517;53.546;10.104;2023-11-19T15:02:33;14.00;99.90
11221;DHT22;8517;53.546;10.104;2023-11-19T15:05:04;13.90;99.90
11221;DHT22;8517;53.546;10.104;2023-11-19T15:07:33;13.80;99.90
11221;DHT22;8517;53.546;10.104;2023-11-19T15:10:01;13.80;99.90
11221;DHT22;8517;53.546;10.104;2023-11-19T15:12:28;13.80;99.90
11221;DHT22;8517;53.546;10.104;2023-11-19T15:14:55;13.80;99.90
11221;DHT22;8517;53.546;10.104;2023-11-19T15:17:22;13.70;99.90
11221;DHT22;8517;53.546;10.104;2023-11-19T15:19:49;13.70;99.90
11221;DHT22;8517;53.546;10.104;2023-11-19T15:22:16;13.70;99.90
11221;DHT22;8517;53.546;10.104;2023-11-19T15:24:44;13.70;99.90
11221;DHT22;8517;53.546;10.104;2023-11-19T15:27:12;13.60;99.90
11221;DHT22;8517;53.546;10.104;2023-11-19T15:29:40;13.50;99.90
11221;DHT22;8517;53.546;10.104;2023-11-19T15:32:10;13.30;99.90
11221;DHT22;8517;53.546;10.104;2023-11-19T15:34:37;13.20;99.90
11221;DHT22;8517;53.546;10.104;2023-11-19T15:37:08;13.10;99.90
11221;DHT22;8517;53.546;10.104;2023-11-19T15:39:39;13.00;99.90
11221;DHT22;8517;53.546;10.104;2023-11-19T15:42:07;12.90;99.90
11221;DHT22;8517;53.546;10.104;2023-11-19T15:44:37;12.90;99.90
11221;DHT22;8517;53.546;10.104;2023-11-19T15:47:04;12.80;99.90
11221;DHT22;8517;53.546;10.104;2023-11-19T15:49:31;12.70;99.90
11221;DHT22;8517;53.546;10.104;2023-11-19T15:51:58;12.70;99.90
11221;DHT22;8517;53.546;10.104;2023-11-19T15:54:25;12.60;99.90
11221;DHT22;8517;53.546;10.104;2023-11-19T15:56:52;12.70;99.90